createdAt,value
2018-06-16T00:00:59.373Z,91.20
2018-06-16T00:03:27.825Z,91.40
2018-06-16T00:05:56.305Z,91.30
2018-06-16T00:08:24.810Z,91.50
2018-06-16T00:10:53.318Z,91.60
2018-06-16T00:13:21.784Z,91.60
2018-06-16T00:15:50.251Z,91.70
2018-06-16T00:18:18.693Z,91.80
2018-06-16T00:20:47.150Z,91.80
2018-06-16T00:23:15.694Z,91.70
2018-06-16T00:25:44.144Z,91.60
2018-06-16T00:28:12.577Z,91.60
2018-06-16T00:30:41.068Z,92.10
2018-06-16T00:33:09.519Z,92.10
2018-06-16T00:35:38.031Z,92.10
2018-06-16T00:38:06.522Z,92.00
2018-06-16T00:40:34.981Z,92.10
2018-06-16T00:43:03.449Z,91.90
2018-06-16T00:45:31.956Z,92.20
2018-06-16T00:48:00.421Z,92.50
2018-06-16T00:50:28.889Z,92.50
2018-06-16T00:52:57.358Z,92.40
2018-06-16T00:55:25.818Z,92.60
2018-06-16T00:57:54.257Z,92.80
2018-06-16T01:00:22.714Z,93.10
2018-06-16T01:02:51.210Z,93.00
2018-06-16T01:05:19.657Z,93.20
2018-06-16T01:07:48.146Z,93.20
2018-06-16T01:10:16.625Z,93.00
2018-06-16T01:12:45.076Z,93.30
2018-06-16T01:15:13.521Z,93.40
2018-06-16T01:17:42.005Z,93.10
2018-06-16T01:20:10.548Z,93.80
2018-06-16T01:22:39.006Z,93.50
2018-06-16T01:25:07.486Z,93.50
2018-06-16T01:27:35.949Z,93.60
2018-06-16T01:30:04.483Z,93.40
2018-06-16T01:32:32.927Z,93.60
2018-06-16T01:35:01.433Z,93.50
2018-06-16T01:37:29.884Z,93.60
2018-06-16T01:39:58.329Z,93.70
2018-06-16T01:42:26.797Z,93.50
2018-06-16T01:44:55.247Z,93.50
2018-06-16T01:47:23.721Z,93.90
2018-06-16T01:49:52.173Z,93.40
2018-06-16T01:52:20.634Z,94.00
2018-06-16T01:54:49.181Z,94.10
2018-06-16T01:57:17.631Z,93.50
2018-06-16T01:59:46.073Z,94.00
2018-06-16T02:02:14.561Z,94.20
2018-06-16T02:04:42.990Z,94.20
2018-06-16T02:07:11.428Z,94.20
2018-06-16T02:09:39.943Z,94.40
2018-06-16T02:12:08.420Z,94.40
2018-06-16T02:17:05.053Z,94.50
2018-06-16T02:19:33.513Z,94.60
2018-06-16T02:22:01.964Z,94.30
2018-06-16T02:24:30.421Z,94.60
2018-06-16T02:26:58.914Z,94.30
2018-06-16T02:29:27.390Z,94.70
2018-06-16T02:34:24.001Z,94.60
2018-06-16T02:36:52.506Z,94.50
2018-06-16T02:39:20.995Z,94.70
2018-06-16T02:41:49.431Z,94.20
2018-06-16T02:44:17.909Z,94.10
2018-06-16T02:46:46.355Z,94.60
2018-06-16T02:49:14.873Z,94.70
2018-06-16T02:51:43.375Z,95.00
2018-06-16T02:54:11.821Z,95.30
2018-06-16T02:56:40.308Z,95.20
2018-06-16T02:59:08.740Z,95.10
2018-06-16T03:01:37.182Z,94.90
2018-06-16T03:04:05.733Z,94.70
2018-06-16T03:06:34.206Z,94.60
2018-06-16T03:09:02.773Z,94.70
2018-06-16T03:11:31.225Z,94.90
2018-06-16T03:13:59.726Z,94.90
2018-06-16T03:16:28.174Z,95.00
2018-06-16T03:18:56.674Z,95.20
2018-06-16T03:21:25.138Z,95.10
2018-06-16T03:23:53.590Z,95.00
2018-06-16T03:26:22.086Z,94.90
2018-06-16T03:28:50.524Z,94.70
2018-06-16T03:31:19.051Z,94.70
2018-06-16T03:33:47.530Z,94.90
2018-06-16T03:36:16.087Z,94.90
2018-06-16T03:38:44.530Z,95.00
2018-06-16T03:41:12.989Z,94.80
2018-06-16T03:43:41.459Z,94.90
2018-06-16T03:46:09.902Z,95.10
2018-06-16T03:48:38.379Z,94.90
2018-06-16T03:51:06.902Z,95.00
2018-06-16T03:53:35.361Z,95.20
2018-06-16T03:56:03.841Z,95.10
2018-06-16T03:58:32.337Z,95.40
2018-06-16T04:01:00.815Z,95.40
2018-06-16T04:03:29.296Z,95.30
2018-06-16T04:05:57.781Z,95.30
2018-06-16T04:08:26.277Z,95.20
2018-06-16T04:10:54.847Z,95.00
2018-06-16T04:13:23.313Z,95.00
2018-06-16T04:18:19.915Z,95.00
2018-06-16T04:20:48.380Z,95.00
2018-06-16T04:23:16.821Z,95.10
2018-06-16T04:25:45.285Z,94.60
2018-06-16T04:28:13.789Z,94.60
2018-06-16T04:30:42.246Z,94.60
2018-06-16T04:33:10.700Z,94.10
2018-06-16T04:35:39.205Z,94.00
2018-06-16T04:38:07.734Z,93.90
2018-06-16T04:40:36.214Z,93.80
2018-06-16T04:43:04.681Z,93.70
2018-06-16T04:45:33.220Z,93.60
2018-06-16T04:48:02.352Z,93.80
2018-06-16T04:50:30.853Z,93.70
2018-06-16T04:52:59.377Z,93.40
2018-06-16T04:55:27.801Z,93.70
2018-06-16T04:57:56.289Z,93.60
2018-06-16T05:00:24.753Z,93.10
2018-06-16T05:02:53.190Z,93.10
2018-06-16T05:05:21.646Z,93.10
2018-06-16T05:07:50.062Z,92.70
2018-06-16T05:10:18.647Z,92.80
2018-06-16T05:12:47.153Z,92.20
2018-06-16T05:15:15.631Z,92.00
2018-06-16T05:17:44.085Z,92.00
2018-06-16T05:20:12.541Z,91.60
2018-06-16T05:22:41.146Z,91.40
2018-06-16T05:25:09.601Z,91.90
2018-06-16T05:27:39.085Z,91.50
2018-06-16T05:30:07.616Z,91.50
2018-06-16T05:32:36.069Z,91.70
2018-06-16T05:37:32.965Z,91.80
2018-06-16T05:40:01.426Z,91.00
2018-06-16T05:42:29.918Z,90.90
2018-06-16T05:44:58.585Z,91.10
2018-06-16T05:47:27.142Z,90.90
2018-06-16T05:49:55.672Z,90.20
2018-06-16T05:52:24.165Z,90.00
2018-06-16T05:54:52.680Z,89.30
2018-06-16T05:57:21.173Z,89.00
2018-06-16T05:59:49.713Z,88.40
2018-06-16T06:02:18.165Z,88.10
2018-06-16T06:04:46.681Z,85.80
2018-06-16T06:07:15.157Z,85.70
2018-06-16T06:09:43.687Z,86.10
2018-06-16T06:12:12.278Z,84.50
2018-06-16T06:14:40.837Z,85.20
2018-06-16T06:17:09.357Z,85.00
2018-06-16T06:22:06.357Z,84.00
2018-06-16T06:24:34.782Z,83.70
2018-06-16T06:27:03.272Z,83.00
2018-06-16T06:29:32.677Z,81.60
2018-06-16T06:32:01.220Z,81.10
2018-06-16T06:34:29.677Z,81.30
2018-06-16T06:36:58.189Z,81.60
2018-06-16T06:39:26.653Z,81.50
2018-06-16T06:41:55.125Z,80.10
2018-06-16T06:44:23.561Z,80.70
2018-06-16T06:46:52.040Z,81.10
2018-06-16T06:49:20.526Z,79.20
2018-06-16T06:51:49.051Z,79.50
2018-06-16T06:54:17.503Z,78.10
2018-06-16T06:56:45.987Z,76.70
2018-06-16T06:59:14.507Z,76.80
2018-06-16T07:01:42.945Z,77.10
2018-06-16T07:04:11.421Z,77.10
2018-06-16T07:06:39.853Z,77.00
2018-06-16T07:09:09.934Z,77.80
2018-06-16T07:14:06.615Z,76.60
2018-06-16T07:16:35.286Z,77.10
2018-06-16T07:19:03.854Z,77.10
2018-06-16T07:21:32.355Z,76.60
2018-06-16T07:24:00.890Z,74.20
2018-06-16T07:26:29.537Z,74.20
2018-06-16T07:28:57.993Z,73.40
2018-06-16T07:31:26.483Z,73.60
2018-06-16T07:33:54.962Z,73.80
2018-06-16T07:36:23.426Z,73.00
2018-06-16T07:38:51.937Z,71.70
2018-06-16T07:41:20.474Z,72.80
2018-06-16T07:43:48.940Z,71.90
2018-06-16T07:46:17.410Z,72.60
2018-06-16T07:48:45.893Z,72.60
2018-06-16T07:51:14.406Z,69.50
2018-06-16T07:53:42.961Z,70.50
2018-06-16T07:56:11.538Z,69.70
2018-06-16T07:58:41.128Z,68.30
2018-06-16T08:01:09.634Z,69.70
2018-06-16T08:03:38.126Z,68.20
2018-06-16T08:06:06.642Z,67.80
2018-06-16T08:08:38.438Z,66.80
2018-06-16T08:13:58.083Z,66.40
2018-06-16T08:16:26.578Z,64.60
2018-06-16T08:18:55.129Z,66.60
2018-06-16T08:21:23.671Z,67.90
2018-06-16T08:23:52.173Z,65.20
2018-06-16T08:26:20.728Z,62.60
2018-06-16T08:28:49.253Z,65.20
2018-06-16T08:31:17.770Z,64.80
2018-06-16T08:33:46.291Z,62.20
2018-06-16T08:36:17.547Z,64.00
2018-06-16T08:38:46.146Z,60.70
2018-06-16T08:41:14.891Z,59.50
2018-06-16T08:43:43.427Z,59.60
2018-06-16T08:46:11.927Z,60.90
2018-06-16T08:48:40.427Z,58.40
2018-06-16T08:51:08.944Z,59.90
2018-06-16T08:53:37.600Z,59.40
2018-06-16T08:56:06.699Z,59.30
2018-06-16T08:58:35.238Z,58.20
2018-06-16T09:01:03.822Z,58.50
2018-06-16T09:03:32.295Z,57.80
2018-06-16T09:06:00.810Z,57.90
2018-06-16T09:08:29.635Z,56.60
2018-06-16T09:10:58.239Z,54.00
2018-06-16T09:13:26.734Z,55.30
2018-06-16T09:15:55.223Z,54.10
2018-06-16T09:18:23.739Z,54.50
2018-06-16T09:23:20.446Z,56.10
2018-06-16T09:25:49.047Z,55.80
2018-06-16T09:28:17.530Z,53.30
2018-06-16T09:30:46.007Z,49.70
2018-06-16T09:33:14.563Z,51.70
2018-06-16T09:35:43.111Z,53.90
2018-06-16T09:38:11.579Z,52.30
2018-06-16T09:40:40.103Z,54.10
2018-06-16T09:43:08.683Z,53.40
2018-06-16T09:45:37.156Z,53.40
2018-06-16T09:48:05.676Z,54.00
2018-06-16T09:50:34.152Z,54.30
2018-06-16T09:53:02.634Z,56.40
2018-06-16T09:55:31.219Z,53.60
2018-06-16T09:57:59.710Z,54.70
2018-06-16T10:00:33.419Z,54.10
2018-06-16T10:03:01.903Z,54.60
2018-06-16T10:05:30.428Z,53.80
2018-06-16T10:07:58.949Z,53.60
2018-06-16T10:10:27.511Z,53.50
2018-06-16T10:12:56.021Z,55.40
2018-06-16T10:15:24.519Z,55.70
2018-06-16T10:17:53.034Z,54.50
2018-06-16T10:20:22.306Z,53.30
2018-06-16T10:22:50.802Z,54.80
2018-06-16T10:25:19.335Z,54.20
2018-06-16T10:27:47.862Z,54.30
2018-06-16T10:30:16.430Z,55.50
2018-06-16T10:32:44.971Z,54.20
2018-06-16T10:37:41.706Z,55.00
2018-06-16T10:40:10.230Z,55.60
2018-06-16T10:42:38.755Z,56.10
2018-06-16T10:45:08.006Z,56.60
2018-06-16T10:47:36.507Z,56.80
2018-06-16T10:50:05.066Z,57.50
2018-06-16T10:52:33.669Z,56.80
2018-06-16T10:55:02.167Z,57.70
2018-06-16T10:57:30.727Z,57.90
2018-06-16T10:59:59.258Z,57.70
2018-06-16T11:02:27.851Z,58.40
2018-06-16T11:04:56.370Z,58.10
2018-06-16T11:07:24.982Z,58.60
2018-06-16T11:09:54.438Z,59.00
2018-06-16T11:12:22.950Z,57.20
2018-06-16T11:14:51.442Z,56.90
2018-06-16T11:17:19.917Z,58.30
2018-06-16T11:19:48.438Z,58.00
2018-06-16T11:22:16.946Z,56.00
2018-06-16T11:24:45.424Z,54.80
2018-06-16T11:27:13.911Z,55.70
2018-06-16T11:29:42.395Z,55.30
2018-06-16T11:32:10.910Z,55.10
2018-06-16T11:34:39.374Z,53.50
2018-06-16T11:37:07.854Z,53.40
2018-06-16T11:39:36.427Z,50.70
2018-06-16T11:42:05.020Z,50.00
2018-06-16T11:44:33.501Z,50.70
2018-06-16T11:51:58.331Z,53.30
2018-06-16T11:54:27.668Z,53.30
2018-06-16T11:56:56.258Z,51.60
2018-06-16T11:59:24.926Z,51.60
2018-06-16T12:01:53.415Z,52.30
2018-06-16T12:04:21.910Z,52.30
2018-06-16T12:06:50.434Z,52.30
2018-06-16T12:09:18.950Z,50.60
2018-06-16T12:11:47.467Z,50.20
2018-06-16T12:14:15.986Z,51.30
2018-06-16T12:16:44.544Z,48.70
2018-06-16T12:19:13.046Z,47.30
2018-06-16T12:21:41.520Z,46.60
2018-06-16T12:24:10.071Z,51.10
2018-06-16T12:26:38.586Z,48.50
2018-06-16T12:29:07.070Z,48.10
2018-06-16T12:31:35.609Z,48.60
2018-06-16T12:34:04.098Z,47.00
2018-06-16T12:36:32.564Z,49.00
2018-06-16T12:39:01.070Z,48.00
2018-06-16T12:41:29.723Z,47.80
2018-06-16T12:43:58.286Z,48.30
2018-06-16T12:46:26.766Z,48.70
2018-06-16T12:48:55.257Z,48.30
2018-06-16T12:51:23.775Z,49.10
2018-06-16T12:53:52.258Z,49.60
2018-06-16T12:56:20.751Z,49.10
2018-06-16T12:58:49.274Z,50.30
2018-06-16T13:01:17.726Z,48.00
2018-06-16T13:03:46.238Z,46.70
2018-06-16T13:06:14.726Z,49.60
2018-06-16T13:08:43.186Z,48.00
2018-06-16T13:11:12.359Z,49.70
2018-06-16T13:13:40.833Z,50.80
2018-06-16T13:16:09.353Z,52.50
2018-06-16T13:18:37.956Z,50.90
2018-06-16T13:21:06.502Z,51.40
2018-06-16T13:23:35.093Z,53.30
2018-06-16T13:26:03.595Z,51.60
2018-06-16T13:28:32.102Z,50.80
2018-06-16T13:31:00.938Z,53.30
2018-06-16T13:33:29.470Z,52.90
2018-06-16T13:35:57.939Z,52.20
2018-06-16T13:38:26.427Z,53.80
2018-06-16T13:40:54.955Z,52.20
2018-06-16T13:43:23.442Z,51.40
2018-06-16T13:45:51.991Z,52.50
2018-06-16T13:48:20.518Z,50.90
2018-06-16T13:50:49.005Z,52.50
2018-06-16T13:53:17.522Z,53.30
2018-06-16T13:55:46.054Z,51.50
2018-06-16T13:58:14.591Z,50.90
2018-06-16T14:03:11.274Z,52.30
2018-06-16T14:05:39.771Z,52.30
2018-06-16T14:08:08.274Z,53.10
2018-06-16T14:10:37.358Z,51.60
2018-06-16T14:13:06.226Z,50.80
2018-06-16T14:15:34.721Z,50.00
2018-06-16T14:18:03.214Z,50.10
2018-06-16T14:20:31.766Z,50.10
2018-06-16T14:23:00.270Z,49.90
2018-06-16T14:25:28.763Z,49.20
2018-06-16T14:27:57.282Z,48.00
2018-06-16T14:30:25.778Z,47.80
2018-06-16T14:32:54.361Z,50.50
2018-06-16T14:35:22.781Z,46.60
2018-06-16T14:37:51.303Z,45.20
2018-06-16T14:40:19.782Z,47.90
2018-06-16T14:42:48.319Z,44.00
2018-06-16T14:45:16.851Z,43.00
2018-06-16T14:47:45.347Z,38.70
2018-06-16T14:50:13.845Z,44.40
2018-06-16T14:52:42.346Z,41.80
2018-06-16T14:55:10.985Z,42.70
2018-06-16T14:57:39.494Z,40.50
2018-06-16T15:00:07.983Z,42.80
2018-06-16T15:02:36.488Z,45.70
2018-06-16T15:05:05.255Z,40.40
2018-06-16T15:07:33.867Z,42.70
2018-06-16T15:10:02.397Z,43.80
2018-06-16T15:12:30.882Z,41.60
2018-06-16T15:14:59.351Z,45.30
2018-06-16T15:17:27.893Z,43.60
2018-06-16T15:19:56.403Z,43.10
2018-06-16T15:22:24.935Z,45.50
2018-06-16T15:24:53.458Z,45.70
2018-06-16T15:27:22.068Z,48.90
2018-06-16T15:29:50.571Z,48.40
2018-06-16T15:32:19.046Z,48.60
2018-06-16T15:34:47.558Z,49.60
2018-06-16T15:37:16.009Z,49.10
2018-06-16T15:39:44.490Z,49.60
2018-06-16T15:42:12.983Z,51.10
2018-06-16T15:44:41.470Z,51.50
2018-06-16T15:47:09.960Z,49.60
2018-06-16T15:49:38.487Z,50.80
2018-06-16T15:52:07.010Z,51.50
2018-06-16T15:54:35.582Z,50.90
2018-06-16T15:57:04.219Z,51.50
2018-06-16T15:59:32.678Z,54.40
2018-06-16T16:02:01.186Z,52.10
2018-06-16T16:04:29.678Z,54.30
2018-06-16T16:06:58.203Z,53.60
2018-06-16T16:09:26.696Z,53.50
2018-06-16T16:11:55.166Z,53.20
2018-06-16T16:14:23.675Z,55.30
2018-06-16T16:16:52.190Z,54.60
2018-06-16T16:19:20.727Z,54.50
2018-06-16T16:21:49.198Z,54.60
2018-06-16T16:26:45.892Z,55.20
2018-06-16T16:29:14.438Z,56.50
2018-06-16T16:31:42.934Z,55.60
2018-06-16T16:34:11.399Z,55.80
2018-06-16T16:36:39.947Z,56.50
2018-06-16T16:39:09.637Z,56.10
2018-06-16T16:41:38.418Z,55.90
2018-06-16T16:44:06.958Z,55.70
2018-06-16T16:46:35.699Z,56.50
2018-06-16T16:49:04.299Z,56.60
2018-06-16T16:51:32.844Z,56.20
2018-06-16T16:54:01.458Z,54.80
2018-06-16T16:56:29.978Z,54.00
2018-06-16T16:58:58.451Z,53.80
2018-06-16T17:01:26.979Z,54.70
2018-06-16T17:03:55.514Z,55.30
2018-06-16T17:06:24.030Z,53.80
2018-06-16T17:08:52.554Z,53.90
2018-06-16T17:11:21.147Z,53.70
2018-06-16T17:13:49.675Z,54.00
2018-06-16T17:16:18.202Z,53.60
2018-06-16T17:18:46.692Z,54.00
2018-06-16T17:21:15.190Z,55.30
2018-06-16T17:23:43.738Z,53.40
2018-06-16T17:26:12.214Z,53.50
2018-06-16T17:28:40.718Z,53.60
2018-06-16T17:31:09.253Z,53.90
2018-06-16T17:33:37.770Z,53.90
2018-06-16T17:36:06.318Z,54.30
2018-06-16T17:38:34.803Z,54.50
2018-06-16T17:43:31.485Z,54.50
2018-06-16T17:46:00.009Z,55.30
2018-06-16T17:48:28.674Z,56.00
2018-06-16T17:50:57.152Z,57.30
2018-06-16T17:53:25.683Z,57.30
2018-06-16T17:55:54.174Z,57.80
2018-06-16T17:58:22.655Z,58.50
2018-06-16T18:00:51.194Z,58.70
2018-06-16T18:03:19.734Z,58.80
2018-06-16T18:05:48.298Z,59.20
2018-06-16T18:08:16.850Z,59.40
2018-06-16T18:10:45.334Z,60.10
2018-06-16T18:13:13.954Z,59.70
2018-06-16T18:15:42.496Z,60.20
2018-06-16T18:18:10.942Z,60.60
2018-06-16T18:20:39.470Z,60.30
2018-06-16T18:23:08.547Z,60.60
2018-06-16T18:25:37.107Z,60.90
2018-06-16T18:28:05.714Z,61.10
2018-06-16T18:30:34.267Z,61.40
2018-06-16T18:33:02.742Z,61.60
2018-06-16T18:35:31.226Z,62.50
2018-06-16T18:37:59.691Z,63.00
2018-06-16T18:40:28.227Z,63.50
2018-06-16T18:42:56.774Z,63.70
2018-06-16T18:45:25.267Z,64.20
2018-06-16T18:47:53.781Z,64.70
2018-06-16T18:50:22.287Z,65.00
2018-06-16T18:52:50.958Z,65.30
2018-06-16T18:55:19.414Z,65.80
2018-06-16T18:57:47.947Z,66.20
2018-06-16T19:00:16.530Z,66.50
2018-06-16T19:02:45.042Z,66.90
2018-06-16T19:05:13.614Z,67.30
2018-06-16T19:07:42.086Z,67.30
2018-06-16T19:10:10.571Z,67.30
2018-06-16T19:12:39.070Z,68.30
2018-06-16T19:17:35.749Z,68.80
2018-06-16T19:20:04.566Z,69.70
2018-06-16T19:22:33.091Z,70.30
2018-06-16T19:25:01.613Z,70.60
2018-06-16T19:27:30.089Z,70.60
2018-06-16T19:29:58.598Z,71.30
2018-06-16T19:32:27.106Z,70.60
2018-06-16T19:34:55.666Z,71.30
2018-06-16T19:37:24.162Z,71.00
2018-06-16T19:39:52.670Z,71.40
2018-06-16T19:42:21.143Z,71.20
2018-06-16T19:44:49.602Z,70.80
2018-06-16T19:47:18.118Z,71.00
2018-06-16T19:49:46.655Z,70.80
2018-06-16T19:52:15.138Z,71.20
2018-06-16T19:54:44.601Z,71.50
2018-06-16T19:57:13.112Z,71.80
2018-06-16T19:59:42.570Z,71.30
2018-06-16T20:02:11.126Z,71.70
2018-06-16T20:04:39.699Z,71.70
2018-06-16T20:07:08.199Z,71.70
2018-06-16T20:09:36.718Z,72.20
2018-06-16T20:17:01.581Z,72.80
2018-06-16T20:19:30.712Z,73.30
2018-06-16T20:21:59.301Z,73.10
2018-06-16T20:24:27.788Z,73.40
2018-06-16T20:26:56.267Z,73.70
2018-06-16T20:29:24.762Z,73.80
2018-06-16T20:31:53.247Z,74.20
2018-06-16T20:34:21.769Z,74.70
2018-06-16T20:36:50.255Z,74.80
2018-06-16T20:39:18.764Z,75.00
2018-06-16T20:41:47.262Z,75.10
2018-06-16T20:44:15.725Z,75.40
2018-06-16T20:46:44.259Z,75.70
2018-06-16T20:49:12.850Z,75.70
2018-06-16T20:51:41.322Z,76.30
2018-06-16T20:54:09.830Z,76.80
2018-06-16T20:56:38.315Z,76.70
2018-06-16T20:59:06.850Z,76.80
2018-06-16T21:01:36.307Z,77.30
2018-06-16T21:04:04.916Z,77.50
2018-06-16T21:06:33.392Z,77.30
2018-06-16T21:09:01.903Z,78.00
2018-06-16T21:11:30.378Z,78.30
2018-06-16T21:13:58.902Z,78.40
2018-06-16T21:16:27.386Z,78.50
2018-06-16T21:18:55.892Z,79.00
2018-06-16T21:21:24.383Z,79.30
2018-06-16T21:23:52.948Z,79.60
2018-06-16T21:26:21.477Z,80.00
2018-06-16T21:28:49.947Z,80.10
2018-06-16T21:31:18.466Z,79.90
2018-06-16T21:33:46.980Z,80.30
2018-06-16T21:36:15.547Z,80.40
2018-06-16T21:38:44.062Z,80.60
2018-06-16T21:41:12.567Z,81.00
2018-06-16T21:43:41.046Z,81.40
2018-06-16T21:46:09.710Z,81.50
2018-06-16T21:48:38.178Z,81.10
2018-06-16T21:51:06.683Z,82.10
2018-06-16T21:53:35.242Z,82.70
2018-06-16T21:56:03.739Z,82.20
2018-06-16T21:58:32.238Z,81.80
2018-06-16T22:01:00.772Z,82.30
2018-06-16T22:03:29.243Z,82.50
2018-06-16T22:05:57.755Z,81.80
2018-06-16T22:08:31.229Z,82.70
2018-06-16T22:11:00.070Z,82.60
2018-06-16T22:13:28.933Z,82.90
2018-06-16T22:15:57.438Z,82.50
2018-06-16T22:18:26.642Z,82.90
2018-06-16T22:20:55.730Z,82.80
2018-06-16T22:23:24.299Z,83.20
2018-06-16T22:25:52.780Z,83.60
2018-06-16T22:28:21.334Z,83.60
2018-06-16T22:30:49.859Z,83.80
2018-06-16T22:33:18.327Z,83.30
2018-06-16T22:35:46.858Z,84.10
2018-06-16T22:38:15.347Z,84.10
2018-06-16T22:40:43.842Z,84.20
2018-06-16T22:43:12.363Z,84.70
2018-06-16T22:45:41.791Z,84.70
2018-06-16T22:48:10.322Z,84.80
2018-06-16T22:50:38.774Z,85.00
2018-06-16T22:53:07.294Z,86.10
2018-06-16T22:55:35.854Z,85.90
2018-06-16T22:58:04.354Z,85.90
2018-06-16T23:00:32.831Z,86.40
2018-06-16T23:03:01.354Z,86.50
2018-06-16T23:05:29.816Z,85.80
2018-06-16T23:07:58.288Z,86.60
2018-06-16T23:10:26.814Z,86.60
2018-06-16T23:12:55.282Z,86.60
2018-06-16T23:15:23.814Z,86.80
2018-06-16T23:17:52.297Z,87.20
2018-06-16T23:20:20.763Z,87.10
2018-06-16T23:22:49.210Z,87.70
2018-06-16T23:25:17.694Z,87.90
2018-06-16T23:27:46.157Z,87.80
2018-06-16T23:30:14.714Z,88.00
2018-06-16T23:32:43.224Z,87.70
2018-06-16T23:35:11.718Z,87.70
2018-06-16T23:37:40.277Z,88.20
2018-06-16T23:40:08.758Z,88.40
2018-06-16T23:42:37.230Z,88.80
2018-06-16T23:45:06.255Z,88.90
2018-06-16T23:47:34.738Z,89.00
2018-06-16T23:50:03.279Z,89.00
2018-06-16T23:52:31.850Z,88.90
2018-06-16T23:55:00.346Z,88.80
2018-06-16T23:57:28.820Z,89.10
2018-06-16T23:59:57.346Z,90.00
